Temp: 12.1°C   Baro: 1005.2mb
  Wind: 4.9mph   Dir: SW (230°)
  Rain: 7.6mm (0.0mm/hr)
  Solar: 98W/m2  Hum: 90%
 
Bath Spa Weather Historical Data
Daily Summary for January 26, 2020 Units:  English    Metric   Both
Next Day »
Daily Weekly Monthly Yearly Custom
  High: Low: Average:
Temperature: 50 °F 44.2 °F 47.1 °F
Dew Point: 47.8 °F 42.6 °F 45 °F
Humidity: 95% 88% 93%
Wind Speed: 16.1mph 0mph 3.6mph
Wind Gust: 17mph - -
Wind direction- - SW
Pressure: 29.9 in 29.7 in -
Precipitation: 0.22 in    
Historical Graphs
 
 
Tabular Data for January 26, 2020
Time Temperature Dew Point Pressure Wind direction Wind Speed Wind Gust Humidity Rainfall Rate (Hourly) solar
00:00 45.9 °F 44.4 °F 29.9 in South 0.9 mph 4 mph 95% 0 in 0.00 W/m2
00:05 45.9 °F 44.4 °F 29.9 in SSE 2 mph 5 mph 95% 0 in 0.00 W/m2
00:10 45.9 °F 44.4 °F 29.9 in South 4.9 mph 6 mph 95% 0 in 0.00 W/m2
00:15 45.9 °F 44.4 °F 29.9 in SE 4 mph 6 mph 95% 0 in 0.00 W/m2
00:20 46 °F 44.6 °F 29.9 in SSE 6 mph 8 mph 95% 0 in 0.00 W/m2
00:25 46 °F 44.6 °F 29.9 in SSE 4 mph 7 mph 95% 0 in 0.00 W/m2
00:30 46.2 °F 44.8 °F 29.9 in SSE 2.9 mph 11 mph 95% 0 in 0.00 W/m2
00:35 46.2 °F 44.8 °F 29.9 in SSE 2.9 mph 7 mph 95% 0 in 0.00 W/m2
00:40 46.2 °F 44.8 °F 29.9 in SE 2.9 mph 6 mph 95% 0 in 0.00 W/m2
00:45 46.2 °F 44.8 °F 29.9 in South 2.9 mph 4 mph 95% 0 in 0.00 W/m2
00:50 46.2 °F 44.8 °F 29.9 in South 2 mph 5 mph 95% 0 in 0.00 W/m2
00:55 46.2 °F 44.8 °F 29.9 in SSE 4 mph 5 mph 95% 0 in 0.00 W/m2
01:00 46.4 °F 45 °F 29.9 in South 4.9 mph 7 mph 95% 0 in 0.00 W/m2
01:05 46.4 °F 44.8 °F 29.9 in SSE 2 mph 5 mph 94% 0 in 0.00 W/m2
01:10 46.4 °F 44.8 °F 29.9 in South 4 mph 7 mph 94% 0 in 0.00 W/m2
01:15 46.2 °F 44.6 °F 29.9 in South 2 mph 4 mph 94% 0 in 0.00 W/m2
01:20 46.2 °F 44.6 °F 29.9 in South 6 mph 7 mph 94% 0 in 0.00 W/m2
01:25 46.2 °F 44.6 °F 29.9 in South 2 mph 6 mph 94% 0 in 0.00 W/m2
01:30 46.2 °F 44.6 °F 29.9 in South 6.9 mph 7 mph 94% 0 in 0.00 W/m2
01:35 46.2 °F 44.6 °F 29.9 in South 2.9 mph 8 mph 94% 0 in 0.00 W/m2
01:40 46.2 °F 44.6 °F 29.9 in South 2.9 mph 7 mph 94% 0 in 0.00 W/m2
01:45 46.2 °F 44.6 °F 29.9 in SSW 4.9 mph 5 mph 94% 0 in 0.00 W/m2
01:50 46.2 °F 44.6 °F 29.9 in South 2 mph 4 mph 94% 0 in 0.00 W/m2
01:55 46.4 °F 44.8 °F 29.9 in South 2.9 mph 5 mph 94% 0 in 0.00 W/m2
02:00 46.4 °F 44.8 °F 29.9 in South 0.9 mph 4 mph 94% 0 in 0.00 W/m2
02:05 46.4 °F 44.4 °F 29.9 in SSW 2 mph 4 mph 93% 0 in 0.00 W/m2
02:10 46.4 °F 44.4 °F 29.9 in South 0.9 mph 2 mph 93% 0 in 0.00 W/m2
02:15 46.4 °F 44.4 °F 29.9 in South 4 mph 5 mph 93% 0 in 0.00 W/m2
02:20 46.4 °F 44.4 °F 29.9 in South 0.9 mph 3 mph 93% 0 in 0.00 W/m2
02:25 46.6 °F 44.6 °F 29.9 in SSW 2.9 mph 6 mph 93% 0 in 0.00 W/m2
02:30 46.6 °F 44.6 °F 29.9 in South 2.9 mph 8 mph 93% 0 in 0.00 W/m2
02:35 46.6 °F 44.6 °F 29.9 in South 2 mph 6 mph 93% 0 in 0.00 W/m2
02:40 46.6 °F 44.6 °F 29.9 in South 2.9 mph 4 mph 93% 0 in 0.00 W/m2
02:45 46.6 °F 44.6 °F 29.9 in SSW 0.9 mph 2 mph 93% 0 in 0.00 W/m2
02:50 46.6 °F 44.6 °F 29.9 in South 2.9 mph 5 mph 93% 0 in 0.00 W/m2
02:55 46.6 °F 44.6 °F 29.8 in South 0.9 mph 2 mph 93% 0 in 0.00 W/m2
03:00 46.6 °F 44.6 °F 29.8 in South 2.9 mph 4 mph 93% 0 in 0.00 W/m2
03:05 46.6 °F 44.6 °F 29.8 in South 2.9 mph 6 mph 93% 0 in 0.00 W/m2
03:10 46.6 °F 44.6 °F 29.8 in South 2 mph 5 mph 93% 0 in 0.00 W/m2
03:15 46.6 °F 44.4 °F 29.8 in SSW 2 mph 5 mph 92% 0 in 0.00 W/m2
03:20 46.8 °F 44.8 °F 29.8 in SSW 4 mph 6 mph 93% 0 in 0.00 W/m2
03:25 46.9 °F 45 °F 29.8 in South 2 mph 4 mph 93% 0 in 0.00 W/m2
03:30 46.9 °F 44.8 °F 29.8 in South 0.9 mph 6 mph 92% 0 in 0.00 W/m2
03:36 46.9 °F 44.8 °F 29.8 in South 2.9 mph 4 mph 92% 0 in 0.00 W/m2
03:40 46.9 °F 44.8 °F 29.8 in SW 0.9 mph 5 mph 92% 0 in 0.00 W/m2
03:45 46.9 °F 44.8 °F 29.8 in SW 4.9 mph 8 mph 92% 0 in 0.00 W/m2
03:50 46.9 °F 44.8 °F 29.8 in SW 2.9 mph 6 mph 92% 0 in 0.00 W/m2
03:55 46.9 °F 44.8 °F 29.8 in SSW 2 mph 5 mph 92% 0 in 0.00 W/m2
04:00 46.8 °F 44.6 °F 29.8 in SW 2 mph 6 mph 92% 0 in 0.00 W/m2
04:05 46.8 °F 44.6 °F 29.8 in SW 2 mph 6 mph 92% 0 in 0.00 W/m2
04:10 46.8 °F 44.6 °F 29.8 in WSW 2 mph 5 mph 92% 0 in 0.00 W/m2
04:15 46.8 °F 44.6 °F 29.8 in WSW 2.9 mph 6 mph 92% 0 in 0.00 W/m2
04:20 46.6 °F 44.4 °F 29.8 in West 2 mph 5 mph 92% 0 in 0.00 W/m2
04:25 46.6 °F 44.4 °F 29.8 in West 2.9 mph 4 mph 92% 0 in 0.00 W/m2
04:30 46.6 °F 44.4 °F 29.8 in West 2 mph 4 mph 92% 0 in 0.00 W/m2
04:35 46.6 °F 44.4 °F 29.8 in SW 2 mph 2 mph 92% 0 in 0.00 W/m2
04:40 46.8 °F 44.6 °F 29.8 in WSW 0.9 mph 7 mph 92% 0 in 0.00 W/m2
04:45 46.8 °F 44.6 °F 29.8 in WSW 2 mph 3 mph 92% 0 in 0.00 W/m2
04:50 46.8 °F 44.6 °F 29.8 in SSW 2.9 mph 4 mph 92% 0 in 0.00 W/m2
04:55 46.8 °F 44.2 °F 29.8 in SW 2 mph 7 mph 91% 0 in 0.00 W/m2
05:00 46.8 °F 44.2 °F 29.8 in SSW 2 mph 4 mph 91% 0 in 0.00 W/m2
05:05 46.8 °F 44.2 °F 29.8 in WSW 4 mph 5 mph 91% 0 in 0.00 W/m2
05:10 46.8 °F 44.2 °F 29.8 in WSW 4 mph 5 mph 91% 0 in 0.00 W/m2
05:15 46.8 °F 44.2 °F 29.8 in SW 2 mph 4 mph 91% 0 in 0.00 W/m2
05:20 46.8 °F 44.2 °F 29.8 in SSW 2.9 mph 5 mph 91% 0 in 0.00 W/m2
05:25 46.6 °F 44.1 °F 29.8 in SSW 2 mph 7 mph 91% 0 in 0.00 W/m2
05:30 46.6 °F 44.1 °F 29.8 in South 2 mph 8 mph 91% 0 in 0.00 W/m2
05:35 46.6 °F 44.1 °F 29.8 in SW 4 mph 7 mph 91% 0 in 0.00 W/m2
05:40 46.6 °F 43.9 °F 29.8 in WSW 4 mph 7 mph 90% 0 in 0.00 W/m2
05:45 46.8 °F 44.1 °F 29.8 in WSW 6 mph 8 mph 90% 0 in 0.00 W/m2
05:51 46.8 °F 44.1 °F 29.8 in WSW 2 mph 4 mph 90% 0 in 0.00 W/m2
05:55 46.8 °F 44.1 °F 29.8 in SW 4 mph 7 mph 90% 0 in 0.00 W/m2
06:00 46.8 °F 44.1 °F 29.8 in SW 4 mph 5 mph 90% 0 in 0.00 W/m2
06:05 46.8 °F 44.1 °F 29.8 in SW 4 mph 7 mph 90% 0 in 0.00 W/m2
06:10 46.8 °F 43.7 °F 29.8 in SW 2.9 mph 6 mph 89% 0 in 0.00 W/m2
06:15 46.9 °F 44.2 °F 29.8 in SW 2.9 mph 6 mph 90% 0 in 0.00 W/m2
06:21 46.9 °F 43.9 °F 29.8 in South 2 mph 6 mph 89% 0 in 0.00 W/m2
06:25 47.1 °F 44.4 °F 29.8 in SSW 2.9 mph 8 mph 90% 0 in 0.00 W/m2
06:30 46.9 °F 44.2 °F 29.8 in SSE 6 mph 6 mph 90% 0 in 0.00 W/m2
06:35 46.9 °F 44.2 °F 29.8 in SSW 2 mph 6 mph 90% 0 in 0.00 W/m2
06:40 46.9 °F 44.2 °F 29.8 in SSW 0.9 mph 6 mph 90% 0 in 0.00 W/m2
06:45 46.9 °F 44.2 °F 29.8 in SW 2 mph 5 mph 90% 0 in 0.00 W/m2
06:50 46.8 °F 44.1 °F 29.8 in SSW 2.9 mph 5 mph 90% 0 in 0.00 W/m2
06:55 46.8 °F 44.1 °F 29.8 in Calm   5 mph 90% 0 in 0.00 W/m2
07:00 46.8 °F 44.1 °F 29.8 in SSW 0.9 mph 2 mph 90% 0 in 0.00 W/m2
07:05 46.6 °F 43.9 °F 29.8 in SW 2 mph 5 mph 90% 0 in 0.00 W/m2
07:10 46.6 °F 43.9 °F 29.8 in SSW 2.9 mph 3 mph 90% 0 in 0.00 W/m2
07:15 46.6 °F 43.9 °F 29.8 in SSW 2 mph 3 mph 90% 0 in 0.00 W/m2
07:20 46.4 °F 43.7 °F 29.8 in SSW 4.9 mph 6 mph 90% 0 in 0.00 W/m2
07:25 46.2 °F 43.5 °F 29.8 in South 2 mph 3 mph 90% 0 in 0.00 W/m2
07:30 46.4 °F 43.7 °F 29.8 in East 2 mph 3 mph 90% 0 in 0.00 W/m2
07:35 46.2 °F 43.5 °F 29.8 in SSE 0.9 mph 5 mph 90% 0 in 0.00 W/m2
07:40 46.2 °F 43.5 °F 29.8 in SSE 0.9 mph 2 mph 90% 0 in 0.00 W/m2
07:45 46.2 °F 43.5 °F 29.8 in Calm   2 mph 90% 0 in 0.00 W/m2
07:50 46.4 °F 43.7 °F 29.8 in South 2 mph 4 mph 90% 0 in 0.00 W/m2
07:55 46.2 °F 43.5 °F 29.8 in SSW 4.9 mph 8 mph 90% 0 in 0.00 W/m2
08:00 46.6 °F 43.9 °F 29.8 in SSW 4.9 mph 5 mph 90% 0 in 0.00 W/m2
08:05 46.9 °F 44.2 °F 29.8 in SSW 11 mph 12 mph 90% 0 in 7.00 W/m2
08:10 47.3 °F 44.2 °F 29.8 in SSE 6.9 mph 9 mph 89% 0 in 16.00 W/m2
08:15 47.5 °F 44.1 °F 29.8 in South 8.9 mph 9 mph 88% 0 in 19.00 W/m2
08:20 47.5 °F 44.1 °F 29.8 in South 6 mph 11 mph 88% 0 in 19.00 W/m2
08:25 47.5 °F 44.1 °F 29.8 in South 6.9 mph 9 mph 88% 0 in 30.00 W/m2
08:30 47.5 °F 44.1 °F 29.8 in South 6.9 mph 11 mph 88% 0 in 44.00 W/m2
08:35 47.5 °F 44.1 °F 29.8 in South 6.9 mph 8 mph 88% 0 in 44.00 W/m2
08:40 47.7 °F 44.2 °F 29.8 in SSW 4 mph 7 mph 88% 0 in 47.00 W/m2
08:45 47.7 °F 44.2 °F 29.8 in South 6 mph 7 mph 88% 0 in 51.00 W/m2
08:50 47.7 °F 44.2 °F 29.8 in SSE 2 mph 7 mph 88% 0 in 51.00 W/m2
08:55 47.7 °F 44.6 °F 29.8 in South 4.9 mph 5 mph 89% 0 in 53.00 W/m2
09:00 47.7 °F 44.6 °F 29.8 in South 2 mph 6 mph 89% 0 in 54.00 W/m2
09:06 47.7 °F 44.6 °F 29.8 in South 2 mph 7 mph 89% 0 in 62.00 W/m2
09:10 47.8 °F 44.8 °F 29.8 in SSE 2.9 mph 4 mph 89% 0 in 70.00 W/m2
09:15 47.8 °F 44.8 °F 29.8 in SSW 2 mph 6 mph 89% 0 in 76.00 W/m2
09:20 47.8 °F 44.8 °F 29.8 in SW 2.9 mph 7 mph 89% 0 in 79.00 W/m2
09:25 47.8 °F 44.8 °F 29.8 in SSW 2 mph 6 mph 89% 0 in 77.00 W/m2
09:31 47.8 °F 44.8 °F 29.8 in South 4 mph 6 mph 89% 0 in 76.00 W/m2
09:35 48 °F 45 °F 29.8 in South 4 mph 10 mph 89% 0 in 77.00 W/m2
09:40 48 °F 45 °F 29.8 in South 6.9 mph 11 mph 89% 0 in 76.00 W/m2
09:45 48 °F 45 °F 29.8 in South 6 mph 8 mph 89% 0 in 74.00 W/m2
09:50 48 °F 45 °F 29.8 in South 4.9 mph 11 mph 89% 0 in 72.00 W/m2
09:55 48.2 °F 45.1 °F 29.8 in SSW 6.9 mph 16 mph 89% 0 in 60.00 W/m2
10:00 48.4 °F 45.5 °F 29.8 in South 6 mph 11 mph 90% 0 in 62.00 W/m2
10:05 48.6 °F 45.5 °F 29.8 in SSW 4.9 mph 13 mph 89% 0 in 62.00 W/m2
10:10 48.6 °F 45.5 °F 29.8 in SSE 8.1 mph 10 mph 89% 0 in 60.00 W/m2
10:15 48.7 °F 45.7 °F 29.8 in SSE 6 mph 9 mph 89% 0 in 60.00 W/m2
10:20 48.7 °F 45.7 °F 29.8 in SSE 4.9 mph 12 mph 89% 0 in 67.00 W/m2
10:25 48.9 °F 45.9 °F 29.8 in South 13 mph 13 mph 89% 0 in 56.00 W/m2
10:30 48.9 °F 45.9 °F 29.8 in South 8.1 mph 10 mph 89% 0 in 81.00 W/m2
10:35 49.1 °F 46 °F 29.8 in SSW 6.9 mph 8 mph 89% 0 in 77.00 W/m2
10:40 49.3 °F 46.2 °F 29.8 in South 2.9 mph 9 mph 89% 0 in 54.00 W/m2
10:45 49.3 °F 46.2 °F 29.8 in South 6 mph 10 mph 89% 0 in 62.00 W/m2
10:50 49.5 °F 46.4 °F 29.8 in SSW 6 mph 11 mph 89% 0 in 69.00 W/m2
10:56 49.5 °F 46.4 °F 29.8 in South 2.9 mph 10 mph 89% 0 in 58.00 W/m2
11:00 49.5 °F 46.4 °F 29.8 in South 4 mph 10 mph 89% 0 in 47.00 W/m2
11:05 49.5 °F 46 °F 29.8 in SSW 6 mph 7 mph 88% 0 in 54.00 W/m2
11:10 49.5 °F 46.4 °F 29.8 in South 6.9 mph 13 mph 89% 0 in 44.00 W/m2
11:15 49.3 °F 46.2 °F 29.8 in SSE 10.1 mph 15 mph 89% 0.01 in 35.00 W/m2
11:20 49.3 °F 46.4 °F 29.8 in SSW 6 mph 15 mph 90% 0.01 in 40.00 W/m2
11:25 49.1 °F 46.2 °F 29.8 in SSE 6 mph 10 mph 90% 0.01 in 60.00 W/m2
11:30 49.1 °F 46.6 °F 29.8 in SSW 4 mph 9 mph 91% 0.01 in 47.00 W/m2
11:35 48.9 °F 46.4 °F 29.7 in South 6.9 mph 9 mph 91% 0.01 in 28.00 W/m2
11:40 48.9 °F 46.4 °F 29.7 in SSW 6 mph 8 mph 91% 0.02 in 23.00 W/m2
11:45 49.1 °F 46.6 °F 29.7 in SW 2 mph 10 mph 91% 0.02 in 47.00 W/m2
11:50 49.1 °F 46.6 °F 29.7 in South 6 mph 8 mph 91% 0.03 in 30.00 W/m2
11:55 49.3 °F 47.1 °F 29.7 in South 8.1 mph 8 mph 92% 0.04 in 28.00 W/m2
12:00 49.3 °F 47.1 °F 29.7 in South 6 mph 10 mph 92% 0.04 in 35.00 W/m2
12:05 49.3 °F 47.1 °F 29.7 in SSW 4.9 mph 8 mph 92% 0.05 in 33.00 W/m2
12:10 49.5 °F 47.3 °F 29.7 in South 10.1 mph 12 mph 92% 0.06 in 33.00 W/m2
12:15 49.6 °F 47.5 °F 29.7 in South 8.1 mph 11 mph 92% 0.05 in 37.00 W/m2
12:20 49.8 °F 47.7 °F 29.7 in South 4.9 mph 16 mph 92% 0.06 in 40.00 W/m2
12:25 49.8 °F 47.7 °F 29.7 in SW 4 mph 11 mph 92% 0.06 in 26.00 W/m2
12:30 49.8 °F 47.7 °F 29.7 in WSW 2.9 mph 10 mph 92% 0.08 in 21.00 W/m2
12:35 49.6 °F 47.5 °F 29.7 in SW 8.1 mph 10 mph 92% 0.08 in 18.00 W/m2
12:40 49.6 °F 47.5 °F 29.7 in WSW 4.9 mph 10 mph 92% 0.09 in 19.00 W/m2
12:45 49.6 °F 47.5 °F 29.7 in SW 8.1 mph 8 mph 92% 0.1 in 23.00 W/m2
12:50 49.6 °F 47.5 °F 29.7 in SSW 4 mph 11 mph 92% 0.1 in 53.00 W/m2
12:55 49.6 °F 47.5 °F 29.7 in SSW 6.9 mph 10 mph 92% 0.09 in 58.00 W/m2
13:00 49.8 °F 47.7 °F 29.7 in South 4.9 mph 13 mph 92% 0.09 in 35.00 W/m2
13:05 49.8 °F 47.7 °F 29.7 in SSE 4 mph 11 mph 92% 0.09 in 35.00 W/m2
13:10 49.8 °F 47.7 °F 29.7 in SE 8.9 mph 13 mph 92% 0.09 in 51.00 W/m2
13:15 49.8 °F 47.7 °F 29.7 in South 4.9 mph 15 mph 92% 0.09 in 51.00 W/m2
13:20 49.8 °F 47.7 °F 29.7 in SSW 6.9 mph 10 mph 92% 0.09 in 51.00 W/m2
13:25 49.8 °F 47.7 °F 29.7 in SSW 8.9 mph 12 mph 92% 0.08 in 51.00 W/m2
13:30 49.8 °F 47.7 °F 29.7 in SSW 11 mph 14 mph 92% 0.08 in 46.00 W/m2
13:35 50 °F 47.8 °F 29.7 in South 4 mph 13 mph 92% 0.07 in 30.00 W/m2
13:40 50 °F 47.8 °F 29.7 in SW 8.1 mph 11 mph 92% 0.06 in 56.00 W/m2
13:45 50 °F 47.8 °F 29.7 in SSE 6 mph 12 mph 92% 0.04 in 54.00 W/m2
13:50 50 °F 47.8 °F 29.7 in SSW 4 mph 10 mph 92% 0.03 in 49.00 W/m2
13:55 50 °F 47.8 °F 29.7 in SSW 10.1 mph 16 mph 92% 0.03 in 35.00 W/m2
14:00 49.8 °F 47.7 °F 29.7 in SSW 16.1 mph 16 mph 92% 0.03 in 37.00 W/m2
14:05 49.8 °F 47.7 °F 29.7 in SW 6.9 mph 15 mph 92% 0.03 in 51.00 W/m2
14:10 49.8 °F 47.7 °F 29.7 in South 14.1 mph 17 mph 92% 0.02 in 46.00 W/m2
14:15 49.6 °F 47.1 °F 29.7 in South 11 mph 11 mph 91% 0.02 in 44.00 W/m2
14:20 49.5 °F 47.3 °F 29.7 in SW 11 mph 12 mph 92% 0.02 in 47.00 W/m2
14:25 49.5 °F 47.3 °F 29.7 in South 4 mph 10 mph 92% 0.02 in 47.00 W/m2
14:30 49.3 °F 47.1 °F 29.7 in SW 4.9 mph 8 mph 92% 0.02 in 51.00 W/m2
14:35 49.3 °F 47.3 °F 29.7 in SW 4 mph 7 mph 93% 0.02 in 32.00 W/m2
14:40 49.3 °F 47.3 °F 29.7 in SW 4 mph 12 mph 93% 0.02 in 23.00 W/m2
14:45 49.3 °F 47.3 °F 29.7 in WSW 8.9 mph 11 mph 93% 0.02 in 23.00 W/m2
14:50 49.3 °F 47.3 °F 29.7 in South 4.9 mph 7 mph 93% 0.02 in 26.00 W/m2
14:55 49.5 °F 47.5 °F 29.7 in SSW 6.9 mph 13 mph 93% 0.02 in 65.00 W/m2
15:00 49.5 °F 47.5 °F 29.7 in SW 6.9 mph 8 mph 93% 0.02 in 40.00 W/m2
15:05 49.6 °F 47.7 °F 29.7 in SW 8.9 mph 10 mph 93% 0.02 in 25.00 W/m2
15:10 49.6 °F 47.7 °F 29.7 in WSW 4 mph 10 mph 93% 0.02 in 37.00 W/m2
15:16 49.8 °F 47.8 °F 29.7 in WNW 4.9 mph 9 mph 93% 0.02 in 18.00 W/m2
15:20 49.6 °F 47.7 °F 29.7 in WSW 6 mph 9 mph 93% 0.03 in 21.00 W/m2
15:25 49.5 °F 47.8 °F 29.7 in West 6.9 mph 9 mph 94% 0.04 in 19.00 W/m2
15:30 49.3 °F 47.7 °F 29.7 in WNW 2.9 mph 7 mph 94% 0.04 in 44.00 W/m2
15:35 49.3 °F 47.7 °F 29.7 in West 4 mph 9 mph 94% 0.03 in 47.00 W/m2
15:40 49.1 °F 47.5 °F 29.7 in WNW 2 mph 5 mph 94% 0.03 in 44.00 W/m2
15:45 48.9 °F 47.3 °F 29.7 in West 6 mph 8 mph 94% 0.02 in 42.00 W/m2
15:50 48.7 °F 47.1 °F 29.7 in WNW 2.9 mph 4 mph 94% 0.02 in 40.00 W/m2
15:55 48.6 °F 46.9 °F 29.7 in NW 2.9 mph 4 mph 94% 0.02 in 35.00 W/m2
16:00 48.6 °F 46.9 °F 29.7 in WNW 2 mph 4 mph 94% 0.02 in 23.00 W/m2
16:05 48.4 °F 46.8 °F 29.7 in WNW 2 mph 4 mph 94% 0.02 in 19.00 W/m2
16:10 48.4 °F 46.8 °F 29.7 in WNW 2 mph 5 mph 94% 0.02 in 11.00 W/m2
16:15 48.2 °F 46.6 °F 29.7 in WNW 2 mph 5 mph 94% 0.02 in 7.00 W/m2
16:20 48 °F 46.4 °F 29.7 in West 4 mph 11 mph 94% 0.01 in 9.00 W/m2
16:25 48 °F 46.4 °F 29.7 in WNW 4 mph 9 mph 94% 0 in 7.00 W/m2
16:30 48 °F 46.4 °F 29.7 in NW 2.9 mph 5 mph 94% 0 in 5.00 W/m2
16:35 47.8 °F 46.2 °F 29.7 in NW 2.9 mph 5 mph 94% 0 in 5.00 W/m2
16:40 47.7 °F 46 °F 29.7 in West 2 mph 6 mph 94% 0 in 0.00 W/m2
16:45 47.7 °F 46 °F 29.7 in WNW 2 mph 5 mph 94% 0 in 0.00 W/m2
16:50 47.5 °F 45.9 °F 29.7 in West 4 mph 9 mph 94% 0 in 0.00 W/m2
16:55 47.3 °F 45.7 °F 29.7 in WNW 4 mph 5 mph 94% 0 in 0.00 W/m2
17:00 47.1 °F 45.5 °F 29.7 in NW 4.9 mph 5 mph 94% 0 in 0.00 W/m2
17:05 46.9 °F 45.3 °F 29.7 in West 2.9 mph 6 mph 94% 0 in 0.00 W/m2
17:10 46.9 °F 45.3 °F 29.7 in West 2 mph 5 mph 94% 0 in 0.00 W/m2
17:15 46.8 °F 45.1 °F 29.7 in WNW 2 mph 4 mph 94% 0 in 0.00 W/m2
17:20 46.8 °F 45.1 °F 29.7 in West 2.9 mph 6 mph 94% 0 in 0.00 W/m2
17:25 46.6 °F 45 °F 29.7 in WNW 2.9 mph 5 mph 94% 0 in 0.00 W/m2
17:30 46.6 °F 45 °F 29.7 in WNW 2 mph 4 mph 94% 0 in 0.00 W/m2
17:35 46.6 °F 45 °F 29.7 in West 2 mph 5 mph 94% 0 in 0.00 W/m2
17:40 46.6 °F 45 °F 29.7 in West 2.9 mph 3 mph 94% 0 in 0.00 W/m2
17:45 46.6 °F 45 °F 29.7 in West 2 mph 4 mph 94% 0 in 0.00 W/m2
17:50 46.6 °F 45 °F 29.7 in WNW 0.9 mph 3 mph 94% 0 in 0.00 W/m2
17:55 46.6 °F 45 °F 29.7 in WNW 0.9 mph 3 mph 94% 0 in 0.00 W/m2
18:00 46.6 °F 45 °F 29.7 in WSW 0.9 mph 4 mph 94% 0 in 0.00 W/m2
18:05 46.4 °F 44.8 °F 29.7 in WSW 0.9 mph 3 mph 94% 0 in 0.00 W/m2
18:10 46.2 °F 44.6 °F 29.7 in Calm   2 mph 94% 0 in 0.00 W/m2
18:15 46.2 °F 44.6 °F 29.7 in WSW 0.9 mph 2 mph 94% 0 in 0.00 W/m2
18:20 46 °F 44.4 °F 29.7 in WSW 0.9 mph 2 mph 94% 0 in 0.00 W/m2
18:25 46 °F 44.4 °F 29.7 in WSW 0.9 mph 2 mph 94% 0 in 0.00 W/m2
18:30 46 °F 44.4 °F 29.7 in Calm     94% 0 in 0.00 W/m2
18:35 45.9 °F 44.2 °F 29.7 in Calm     94% 0 in 0.00 W/m2
18:40 45.7 °F 44.1 °F 29.7 in Calm   1 mph 94% 0 in 0.00 W/m2
18:45 45.3 °F 44.1 °F 29.7 in WSW 2 mph 2 mph 95% 0 in 0.00 W/m2
18:50 45.3 °F 43.7 °F 29.7 in WSW 2 mph 3 mph 94% 0 in 0.00 W/m2
18:55 45.3 °F 44.1 °F 29.7 in NW 4 mph 4 mph 95% 0 in 0.00 W/m2
19:00 45.3 °F 43.7 °F 29.7 in WNW 2 mph 3 mph 94% 0.01 in 0.00 W/m2
19:05 45.3 °F 44.1 °F 29.7 in WNW 2 mph 3 mph 95% 0.01 in 0.00 W/m2
19:10 45.3 °F 44.1 °F 29.7 in WNW 2.9 mph 3 mph 95% 0.01 in 0.00 W/m2
19:15 45.1 °F 43.9 °F 29.7 in NW 2 mph 4 mph 95% 0.01 in 0.00 W/m2
19:20 45.1 °F 43.9 °F 29.7 in NW 2.9 mph 3 mph 95% 0.01 in 0.00 W/m2
19:25 45.1 °F 43.9 °F 29.7 in Calm   2 mph 95% 0.01 in 0.00 W/m2
19:30 45.1 °F 43.9 °F 29.7 in NW 2 mph 4 mph 95% 0.01 in 0.00 W/m2
19:35 45 °F 43.7 °F 29.7 in NNW 2.9 mph 4 mph 95% 0.01 in 0.00 W/m2
19:40 45 °F 43.7 °F 29.7 in NW 2 mph 3 mph 95% 0.01 in 0.00 W/m2
19:45 44.8 °F 43.5 °F 29.7 in NW 2.9 mph 4 mph 95% 0.01 in 0.00 W/m2
19:50 44.8 °F 43.5 °F 29.7 in NW 0.9 mph 1 mph 95% 0.01 in 0.00 W/m2
19:55 44.6 °F 43.3 °F 29.7 in NW 0.9 mph 2 mph 95% 0.01 in 0.00 W/m2
20:00 44.2 °F 43 °F 29.7 in NW 0.9 mph 2 mph 95% 0 in 0.00 W/m2
20:05 44.2 °F 43 °F 29.7 in Calm   1 mph 95% 0 in 0.00 W/m2
20:10 44.2 °F 43 °F 29.7 in WSW 2.9 mph 4 mph 95% 0 in 0.00 W/m2
20:15 44.8 °F 43.5 °F 29.7 in SSW 0.9 mph 4 mph 95% 0 in 0.00 W/m2
20:20 45.1 °F 43.9 °F 29.7 in SW 4 mph 6 mph 95% 0 in 0.00 W/m2
20:25 45.1 °F 43.9 °F 29.7 in SW 2.9 mph 6 mph 95% 0 in 0.00 W/m2
20:30 45.1 °F 43.9 °F 29.7 in SW 2 mph 4 mph 95% 0 in 0.00 W/m2
20:35 45.1 °F 43.9 °F 29.7 in SW 2 mph 3 mph 95% 0 in 0.00 W/m2
20:40 45.1 °F 43.9 °F 29.7 in SW 0.9 mph 2 mph 95% 0 in 0.00 W/m2
20:45 45.3 °F 44.1 °F 29.7 in SW 2.9 mph 5 mph 95% 0 in 0.00 W/m2
20:50 45.3 °F 44.1 °F 29.7 in WSW 4 mph 6 mph 95% 0 in 0.00 W/m2
20:55 45.3 °F 44.1 °F 29.7 in SW 2.9 mph 7 mph 95% 0 in 0.00 W/m2
21:00 45.3 °F 44.1 °F 29.7 in SSW 2.9 mph 5 mph 95% 0 in 0.00 W/m2
21:05 45.3 °F 44.1 °F 29.7 in SW 4.9 mph 5 mph 95% 0 in 0.00 W/m2
21:10 45.3 °F 44.1 °F 29.7 in SSW 2 mph 3 mph 95% 0 in 0.00 W/m2
21:15 45.3 °F 44.1 °F 29.7 in South 4 mph 6 mph 95% 0 in 0.00 W/m2
21:20 45.3 °F 44.1 °F 29.7 in South 4 mph 7 mph 95% 0 in 0.00 W/m2
21:25 45.3 °F 44.1 °F 29.7 in Calm   3 mph 95% 0 in 0.00 W/m2
21:30 45.3 °F 44.1 °F 29.7 in SW 0.9 mph 1 mph 95% 0 in 0.00 W/m2
21:35 45.5 °F 44.2 °F 29.7 in SSE 2 mph 5 mph 95% 0 in 0.00 W/m2
21:40 45.5 °F 44.2 °F 29.7 in ESE 2 mph 4 mph 95% 0 in 0.00 W/m2
21:46 45.3 °F 44.1 °F 29.7 in SSW 2 mph 3 mph 95% 0 in 0.00 W/m2
21:50 45.3 °F 44.1 °F 29.7 in SW 2 mph 3 mph 95% 0 in 0.00 W/m2
21:55 45.3 °F 44.1 °F 29.7 in West 0.9 mph 5 mph 95% 0 in 0.00 W/m2
22:00 45.3 °F 44.1 °F 29.7 in NE 2.9 mph 3 mph 95% 0 in 0.00 W/m2
22:05 45.3 °F 44.1 °F 29.7 in Calm   3 mph 95% 0 in 0.00 W/m2
22:10 45.1 °F 43.9 °F 29.7 in East 2 mph 2 mph 95% 0 in 0.00 W/m2
22:15 45.1 °F 43.5 °F 29.7 in NE 4 mph 4 mph 94% 0 in 0.00 W/m2
22:20 45 °F 43.7 °F 29.7 in NNW 2.9 mph 4 mph 95% 0 in 0.00 W/m2
22:25 44.8 °F 43.5 °F 29.7 in NNW 4 mph 4 mph 95% 0 in 0.00 W/m2
22:30 44.8 °F 43.5 °F 29.7 in NW 4.9 mph 5 mph 95% 0 in 0.00 W/m2
22:35 44.8 °F 43.2 °F 29.7 in WNW 2 mph 5 mph 94% 0 in 0.00 W/m2
22:40 45 °F 43.3 °F 29.7 in NNW 0.9 mph 5 mph 94% 0 in 0.00 W/m2
22:45 45 °F 43.3 °F 29.7 in SW 2 mph 3 mph 94% 0 in 0.00 W/m2
22:51 45.1 °F 43.5 °F 29.7 in WSW 2 mph 4 mph 94% 0 in 0.00 W/m2
22:55 45 °F 43.3 °F 29.7 in NNW 2 mph 6 mph 94% 0 in 0.00 W/m2
23:00 45 °F 43.3 °F 29.7 in Calm   1 mph 94% 0 in 0.00 W/m2
23:05 44.8 °F 43.2 °F 29.7 in NW 0.9 mph 2 mph 94% 0 in 0.00 W/m2
23:10 44.6 °F 43 °F 29.7 in NW 2 mph 3 mph 94% 0 in 0.00 W/m2
23:15 44.6 °F 43 °F 29.7 in NW 0.9 mph 2 mph 94% 0 in 0.00 W/m2
23:20 44.4 °F 42.8 °F 29.7 in NNW 2 mph 2 mph 94% 0 in 0.00 W/m2
23:25 44.2 °F 42.6 °F 29.7 in NNW 2.9 mph 4 mph 94% 0 in 0.00 W/m2
23:30 44.6 °F 43 °F 29.7 in North 2.9 mph 5 mph 94% 0 in 0.00 W/m2
23:35 44.6 °F 43 °F 29.7 in NNW 2 mph 4 mph 94% 0 in 0.00 W/m2
23:40 44.8 °F 43.2 °F 29.7 in NW 2 mph 4 mph 94% 0 in 0.00 W/m2
23:45 44.8 °F 43.2 °F 29.7 in NW 0.9 mph 3 mph 94% 0 in 0.00 W/m2
23:50 44.8 °F 43.2 °F 29.7 in WNW 2.9 mph 5 mph 94% 0 in 0.00 W/m2
23:55 44.8 °F 43.2 °F 29.7 in WNW 2 mph 3 mph 94% 0 in 0.00 W/m2